Fort Qu'Appelle, Canada
Current Conditions -  °F | °C
As of 10:00 PM on Thursday 18 Dec 2014 (Local Time) from CYQR Reporting Station
Haze Haze  
Wind Chill: 17°   Ceiling: 200
Heat Index: 25°   Visibility: 1.5mi
Dew Point: 23°   Wind: 7mph
Humidity: 93%   Direction: 220°SW
Pressure: 29.9"   Gusts: NA
Location:  50.77°N, 103.78°W
Report Text: CYQR 190400Z 22006KT 1 1/2SM BR OVC002 M04/M05 A2990 RMK SF8 SLP160
Loading
Personal Weather Stations






























Interactive Weather Map New forecast layout! Learn more

10-Day Weather Forecast

Advertisements
Track Severe Weather on mobile